createdAt,value
2022-08-24T00:02:57.399Z,23.20
2022-08-24T00:07:00.218Z,23.20
2022-08-24T00:11:01.542Z,23.20
2022-08-24T00:15:05.099Z,23.00
2022-08-24T00:19:06.221Z,22.80
2022-08-24T00:23:07.348Z,22.60
2022-08-24T00:27:08.970Z,22.50
2022-08-24T00:31:11.311Z,22.50
2022-08-24T00:35:13.427Z,22.40
2022-08-24T00:39:14.971Z,22.40
2022-08-24T00:43:22.662Z,22.40
2022-08-24T00:47:27.104Z,22.30
2022-08-24T00:51:35.171Z,22.20
2022-08-24T00:55:45.008Z,22.20
2022-08-24T00:59:50.045Z,22.20
2022-08-24T01:03:54.873Z,22.10
2022-08-24T01:07:54.606Z,22.00
2022-08-24T01:11:56.048Z,22.00
2022-08-24T01:16:00.522Z,22.10
2022-08-24T01:20:04.123Z,22.20
2022-08-24T01:24:09.206Z,22.20
2022-08-24T01:28:14.234Z,22.40
2022-08-24T01:32:17.963Z,22.50
2022-08-24T01:36:34.768Z,22.50
2022-08-24T01:40:45.670Z,22.70
2022-08-24T01:44:47.101Z,22.80
2022-08-24T01:48:48.363Z,22.90
2022-08-24T01:53:06.789Z,22.70
2022-08-24T01:56:54.899Z,22.80
2022-08-24T02:00:56.516Z,22.70
2022-08-24T02:04:57.948Z,22.60
2022-08-24T02:08:59.974Z,22.50
2022-08-24T02:13:02.265Z,22.50
2022-08-24T02:17:06.180Z,22.40
2022-08-24T02:21:08.613Z,22.50
2022-08-24T02:25:09.832Z,22.50
2022-08-24T02:29:12.836Z,22.40
2022-08-24T02:33:14.485Z,22.40
2022-08-24T02:37:15.697Z,22.30
2022-08-24T02:41:17.432Z,22.20
2022-08-24T02:45:19.585Z,22.00
2022-08-24T02:49:22.419Z,22.00
2022-08-24T02:53:23.842Z,21.90
2022-08-24T02:57:24.981Z,22.00
2022-08-24T03:01:30.639Z,22.10
2022-08-24T03:05:30.609Z,22.20
2022-08-24T03:09:31.852Z,22.20
2022-08-24T03:13:34.167Z,22.30
2022-08-24T03:17:35.594Z,22.20
2022-08-24T03:21:38.604Z,22.10
2022-08-24T03:25:39.844Z,22.10
2022-08-24T03:29:40.969Z,22.00
2022-08-24T03:33:42.108Z,22.00
2022-08-24T03:37:44.025Z,21.90
2022-08-24T03:41:45.256Z,21.90
2022-08-24T03:45:46.575Z,21.80
2022-08-24T03:49:48.487Z,21.80
2022-08-24T03:53:51.013Z,21.80
2022-08-24T03:57:52.648Z,21.70
2022-08-24T04:01:55.289Z,21.70
2022-08-24T04:05:56.535Z,21.60
2022-08-24T04:09:57.753Z,21.70
2022-08-24T04:13:58.932Z,21.60
2022-08-24T04:18:00.041Z,21.60
2022-08-24T04:22:01.151Z,21.40
2022-08-24T04:26:04.383Z,21.40
2022-08-24T04:30:06.759Z,21.30
2022-08-24T04:34:09.473Z,21.30
2022-08-24T04:38:10.846Z,21.30
2022-08-24T04:42:12.490Z,21.20
2022-08-24T04:46:16.227Z,21.30
2022-08-24T04:50:17.550Z,21.30
2022-08-24T04:54:19.679Z,21.30
2022-08-24T04:58:20.809Z,21.20
2022-08-24T05:02:22.068Z,21.20
2022-08-24T05:06:26.641Z,21.30
2022-08-24T05:10:33.530Z,21.30
2022-08-24T05:14:30.770Z,21.50
2022-08-24T05:18:32.891Z,21.50
2022-08-24T05:22:34.519Z,21.70
2022-08-24T05:26:37.231Z,21.70
2022-08-24T05:30:42.006Z,21.90
2022-08-24T05:34:41.381Z,21.80
2022-08-24T05:38:42.596Z,21.80
2022-08-24T05:42:44.238Z,21.90
2022-08-24T05:46:45.390Z,22.00
2022-08-24T05:50:57.047Z,21.80
2022-08-24T05:54:59.878Z,22.10
2022-08-24T05:59:01.596Z,22.20
2022-08-24T06:03:03.681Z,22.10
2022-08-24T06:07:08.587Z,22.00
2022-08-24T06:11:10.319Z,21.80
2022-08-24T06:15:12.553Z,22.00
2022-08-24T06:19:16.358Z,21.90
2022-08-24T06:23:17.631Z,22.10
2022-08-24T06:27:21.659Z,22.30
2022-08-24T06:31:26.766Z,22.30
2022-08-24T06:35:28.947Z,22.40
2022-08-24T06:39:31.211Z,22.50
2022-08-24T06:43:33.254Z,22.50
2022-08-24T06:47:34.636Z,22.40
2022-08-24T06:51:35.969Z,22.50
2022-08-24T06:55:37.511Z,22.50
2022-08-24T06:59:39.656Z,22.60
2022-08-24T07:03:41.184Z,22.70
2022-08-24T07:07:42.414Z,22.90
2022-08-24T07:11:43.630Z,23.10
2022-08-24T07:15:44.897Z,23.10
2022-08-24T07:19:46.533Z,23.10
2022-08-24T07:23:49.761Z,23.30
2022-08-24T07:27:50.984Z,23.60
2022-08-24T07:31:52.223Z,23.90
2022-08-24T07:35:56.163Z,24.30
2022-08-24T07:39:57.478Z,24.40
2022-08-24T07:43:59.320Z,24.70
2022-08-24T07:52:04.734Z,24.70
2022-08-24T07:56:06.966Z,25.20
2022-08-24T08:00:11.320Z,25.60
2022-08-24T08:04:13.531Z,26.10
2022-08-24T08:08:14.890Z,26.30
2022-08-24T08:12:16.443Z,26.60
2022-08-24T08:16:19.656Z,26.60
2022-08-24T08:20:21.376Z,26.50
2022-08-24T08:24:22.679Z,26.80
2022-08-24T08:28:33.349Z,27.00
2022-08-24T08:32:28.946Z,27.30
2022-08-24T08:36:31.147Z,27.40
2022-08-24T08:40:57.322Z,27.20
2022-08-24T08:45:20.651Z,27.60
2022-08-24T08:49:34.914Z,27.30
2022-08-24T08:53:48.759Z,27.50
2022-08-24T08:57:59.954Z,27.70
2022-08-24T09:02:37.069Z,27.80
2022-08-24T09:06:57.230Z,28.00
2022-08-24T09:11:08.350Z,28.00
2022-08-24T09:15:15.891Z,28.40
2022-08-24T09:19:20.919Z,28.60
2022-08-24T09:23:42.679Z,28.70
2022-08-24T09:28:11.623Z,29.00
2022-08-24T09:32:37.095Z,29.70
2022-08-24T09:36:47.250Z,30.30
2022-08-24T09:41:18.309Z,30.50
2022-08-24T09:45:35.237Z,30.70
2022-08-24T09:49:58.844Z,31.60
2022-08-24T09:54:26.265Z,31.60
2022-08-24T09:59:03.729Z,32.10
2022-08-24T10:03:14.930Z,32.60
2022-08-24T10:07:35.315Z,32.50
2022-08-24T10:11:46.358Z,32.70
2022-08-24T10:16:09.866Z,32.70
2022-08-24T10:20:17.909Z,32.90
2022-08-24T10:24:35.537Z,33.20
2022-08-24T10:28:46.315Z,33.00
2022-08-24T10:32:51.297Z,33.80
2022-08-24T10:37:02.441Z,33.50
2022-08-24T10:41:41.414Z,34.20
2022-08-24T10:46:02.278Z,34.40
2022-08-24T10:50:13.407Z,34.10
2022-08-24T10:54:17.244Z,33.50
2022-08-24T10:58:45.408Z,33.70
2022-08-24T11:02:47.586Z,33.70
2022-08-24T11:07:17.030Z,33.90
2022-08-24T11:11:40.498Z,34.20
2022-08-24T11:15:53.369Z,34.10
2022-08-24T11:19:56.545Z,33.40
2022-08-24T11:24:04.138Z,33.40
2022-08-24T11:28:10.296Z,33.10
2022-08-24T11:32:15.341Z,33.40
2022-08-24T11:36:20.978Z,33.70
2022-08-24T11:40:26.482Z,33.80
2022-08-24T11:44:55.762Z,33.70
2022-08-24T11:49:15.570Z,33.70
2022-08-24T11:57:49.462Z,33.30
2022-08-24T12:01:58.079Z,33.00
2022-08-24T12:06:08.880Z,33.10
2022-08-24T12:10:44.770Z,33.10
2022-08-24T12:15:14.540Z,33.20
2022-08-24T12:19:19.577Z,32.80
2022-08-24T12:23:28.402Z,32.70
2022-08-24T12:27:33.236Z,32.80
2022-08-24T12:31:41.576Z,32.60
2022-08-24T12:35:49.862Z,32.50
2022-08-24T12:40:00.662Z,32.70
2022-08-24T12:44:10.757Z,32.60
2022-08-24T12:48:25.111Z,32.40
2022-08-24T12:52:35.742Z,32.20
2022-08-24T12:56:43.892Z,32.30
2022-08-24T13:00:46.826Z,32.30
2022-08-24T13:04:52.390Z,32.20
2022-08-24T13:08:57.516Z,32.00
2022-08-24T13:13:07.555Z,32.00
2022-08-24T13:17:11.177Z,32.30
2022-08-24T13:21:19.125Z,32.50
2022-08-24T13:25:24.156Z,32.60
2022-08-24T13:29:28.781Z,32.50
2022-08-24T13:33:43.099Z,32.40
2022-08-24T13:37:48.055Z,32.30
2022-08-24T13:42:04.713Z,32.50
2022-08-24T13:46:15.814Z,32.70
2022-08-24T13:50:43.523Z,32.70
2022-08-24T13:55:05.434Z,32.80
2022-08-24T13:59:33.317Z,32.80
2022-08-24T14:03:59.190Z,32.70
2022-08-24T14:08:19.020Z,32.50
2022-08-24T14:12:33.702Z,32.20
2022-08-24T14:17:08.707Z,32.30
2022-08-24T14:21:18.777Z,32.50
2022-08-24T14:25:23.480Z,32.80
2022-08-24T14:29:27.826Z,32.90
2022-08-24T14:33:32.458Z,32.90
2022-08-24T14:37:54.723Z,32.80
2022-08-24T14:42:00.287Z,32.80
2022-08-24T14:46:20.683Z,33.10
2022-08-24T14:50:25.667Z,33.00
2022-08-24T14:54:40.018Z,33.20
2022-08-24T14:59:05.099Z,33.40
2022-08-24T15:03:22.261Z,33.10
2022-08-24T15:07:27.340Z,33.30
2022-08-24T15:11:28.857Z,33.30
2022-08-24T15:15:50.883Z,33.00
2022-08-24T15:20:17.607Z,32.90
2022-08-24T15:24:34.364Z,32.90
2022-08-24T15:28:35.905Z,32.70
2022-08-24T15:32:47.595Z,32.50
2022-08-24T15:37:00.936Z,32.70
2022-08-24T15:41:17.747Z,32.50
2022-08-24T15:45:20.326Z,32.40
2022-08-24T15:49:27.173Z,32.40
2022-08-24T15:53:39.928Z,32.60
2022-08-24T15:57:43.371Z,32.90
2022-08-24T16:02:06.812Z,32.90
2022-08-24T16:06:32.840Z,32.50
2022-08-24T16:10:47.090Z,32.40
2022-08-24T16:14:52.827Z,32.60
2022-08-24T16:18:59.916Z,32.70
2022-08-24T16:23:06.763Z,32.60
2022-08-24T16:27:13.984Z,32.60
2022-08-24T16:31:35.429Z,32.30
2022-08-24T16:35:36.850Z,32.10
2022-08-24T16:39:38.091Z,32.40
2022-08-24T16:43:41.123Z,32.40
2022-08-24T16:47:42.355Z,32.50
2022-08-24T16:51:45.391Z,32.30
2022-08-24T16:55:48.120Z,31.80
2022-08-24T16:59:51.242Z,31.50
2022-08-24T17:03:52.567Z,31.60
2022-08-24T17:07:54.088Z,31.50
2022-08-24T17:11:55.251Z,31.40
2022-08-24T17:15:57.975Z,31.50
2022-08-24T17:19:59.914Z,31.30
2022-08-24T17:24:01.117Z,31.20
2022-08-24T17:28:02.887Z,31.00
2022-08-24T17:32:04.507Z,31.00
2022-08-24T17:36:06.926Z,31.10
2022-08-24T17:40:13.290Z,31.00
2022-08-24T17:44:19.953Z,31.20
2022-08-24T17:48:25.110Z,31.00
2022-08-24T17:52:26.749Z,31.30
2022-08-24T17:56:31.592Z,31.30
2022-08-24T18:00:32.905Z,31.20
2022-08-24T18:04:36.202Z,31.10
2022-08-24T18:08:37.613Z,30.70
2022-08-24T18:12:38.891Z,30.40
2022-08-24T18:16:40.382Z,30.10
2022-08-24T18:20:41.753Z,29.90
2022-08-24T18:24:43.885Z,29.50
2022-08-24T18:28:45.104Z,29.50
2022-08-24T18:32:46.202Z,29.50
2022-08-24T18:36:48.242Z,29.50
2022-08-24T18:40:52.587Z,29.40
2022-08-24T18:44:53.797Z,29.60
2022-08-24T18:48:55.218Z,29.70
2022-08-24T18:52:59.716Z,29.70
2022-08-24T18:57:01.143Z,29.50
2022-08-24T19:01:06.088Z,29.30
2022-08-24T19:05:14.325Z,29.40
2022-08-24T19:09:15.932Z,29.40
2022-08-24T19:13:18.070Z,29.40
2022-08-24T19:17:19.183Z,29.20
2022-08-24T19:21:20.521Z,29.00
2022-08-24T19:25:27.234Z,28.90
2022-08-24T19:29:54.619Z,28.80
2022-08-24T19:33:36.141Z,28.70
2022-08-24T19:37:38.259Z,28.50
2022-08-24T19:41:43.279Z,28.40
2022-08-24T19:46:02.513Z,28.30
2022-08-24T19:50:07.593Z,28.20
2022-08-24T19:54:09.313Z,28.00
2022-08-24T19:58:29.439Z,27.80
2022-08-24T20:02:30.787Z,27.80
2022-08-24T20:06:34.178Z,27.70
2022-08-24T20:10:36.853Z,27.60
2022-08-24T20:14:38.183Z,27.50
2022-08-24T20:18:39.504Z,27.30
2022-08-24T20:22:40.857Z,27.10
2022-08-24T20:26:43.576Z,27.00
2022-08-24T20:30:44.705Z,27.00
2022-08-24T20:34:46.210Z,26.80
2022-08-24T20:38:47.739Z,26.60
2022-08-24T20:42:50.258Z,26.70
2022-08-24T20:46:51.918Z,26.90
2022-08-24T20:50:53.400Z,27.10
2022-08-24T20:54:54.534Z,27.10
2022-08-24T20:58:56.073Z,26.90
2022-08-24T21:02:57.647Z,26.80
2022-08-24T21:06:59.125Z,26.40
2022-08-24T21:11:00.362Z,25.90
2022-08-24T21:15:01.614Z,25.80
2022-08-24T21:19:02.935Z,25.60
2022-08-24T21:23:04.832Z,25.50
2022-08-24T21:27:06.097Z,25.40
2022-08-24T21:31:07.273Z,25.30
2022-08-24T21:35:08.580Z,25.20
2022-08-24T21:39:11.594Z,25.20
2022-08-24T21:43:17.790Z,25.00
2022-08-24T21:47:16.766Z,24.90
2022-08-24T21:51:17.978Z,24.90
2022-08-24T21:55:19.204Z,24.80
2022-08-24T21:59:20.427Z,24.80
2022-08-24T22:03:22.206Z,24.80
2022-08-24T22:07:24.268Z,24.90
2022-08-24T22:11:25.794Z,24.90
2022-08-24T22:15:26.900Z,24.80
2022-08-24T22:19:28.241Z,24.90
2022-08-24T22:23:29.564Z,25.10
2022-08-24T22:27:31.381Z,25.00
2022-08-24T22:31:36.481Z,24.90
2022-08-24T22:35:45.013Z,24.70
2022-08-24T22:39:45.487Z,24.60
2022-08-24T22:44:05.895Z,24.80
2022-08-24T22:48:07.130Z,24.60
2022-08-24T22:52:09.256Z,24.60
2022-08-24T22:56:19.590Z,24.50
2022-08-24T23:00:22.003Z,24.40
2022-08-24T23:04:27.177Z,24.20
2022-08-24T23:08:28.375Z,23.70
2022-08-24T23:12:29.731Z,23.40
2022-08-24T23:16:33.157Z,23.10
2022-08-24T23:20:34.811Z,23.00
2022-08-24T23:24:36.920Z,23.00
2022-08-24T23:28:38.648Z,23.00
2022-08-24T23:32:40.364Z,22.90
2022-08-24T23:36:42.489Z,22.80
2022-08-24T23:40:43.600Z,22.70
2022-08-24T23:44:45.455Z,22.40
2022-08-24T23:48:55.343Z,22.30
2022-08-24T23:52:50.091Z,22.20
2022-08-24T23:56:52.415Z,22.20
